createdAt,value
2019-06-20T00:00:00.906Z,413.67
2019-06-20T00:01:01.220Z,413.45
2019-06-20T00:02:01.660Z,413.41
2019-06-20T00:03:02.080Z,413.47
2019-06-20T00:04:02.479Z,413.51
2019-06-20T00:05:02.917Z,413.65
2019-06-20T00:06:03.299Z,413.31
2019-06-20T00:07:03.808Z,413.50
2019-06-20T00:08:04.153Z,413.06
2019-06-20T00:09:04.560Z,413.34
2019-06-20T00:10:04.996Z,413.42
2019-06-20T00:11:05.373Z,413.27
2019-06-20T00:12:05.835Z,413.14
2019-06-20T00:13:06.274Z,413.24
2019-06-20T00:14:06.668Z,413.28
2019-06-20T00:15:07.186Z,413.10
2019-06-20T00:16:07.488Z,413.38
2019-06-20T00:17:07.924Z,413.28
2019-06-20T00:18:08.347Z,413.50
2019-06-20T00:19:08.745Z,413.28
2019-06-20T00:20:09.180Z,413.30
2019-06-20T00:21:09.584Z,406.58
2019-06-20T00:22:10.046Z,406.94
2019-06-20T00:23:10.452Z,413.54
2019-06-20T00:24:10.861Z,413.34
2019-06-20T00:25:11.274Z,413.77
2019-06-20T00:26:11.665Z,413.58
2019-06-20T00:27:12.125Z,413.58
2019-06-20T00:28:12.514Z,413.31
2019-06-20T00:29:12.932Z,413.49
2019-06-20T00:30:13.389Z,413.55
2019-06-20T00:31:13.813Z,414.51
2019-06-20T00:32:14.353Z,413.28
2019-06-20T00:33:14.624Z,414.02
2019-06-20T00:34:15.043Z,414.19
2019-06-20T00:35:15.481Z,413.15
2019-06-20T00:36:15.880Z,414.21
2019-06-20T00:37:16.319Z,414.05
2019-06-20T00:38:16.737Z,413.02
2019-06-20T00:39:17.117Z,414.05
2019-06-20T00:40:17.676Z,413.45
2019-06-20T00:41:17.971Z,413.29
2019-06-20T00:42:18.427Z,414.09
2019-06-20T00:43:18.835Z,413.40
2019-06-20T00:44:19.215Z,414.50
2019-06-20T00:45:19.648Z,413.57
2019-06-20T00:46:20.068Z,413.95
2019-06-20T00:47:20.512Z,413.66
2019-06-20T00:48:20.989Z,414.35
2019-06-20T00:49:21.293Z,413.64
2019-06-20T00:50:21.734Z,414.05
2019-06-20T00:51:22.184Z,414.22
2019-06-20T00:52:22.619Z,414.09
2019-06-20T00:53:23.038Z,415.34
2019-06-20T00:54:23.440Z,416.46
2019-06-20T00:55:23.866Z,414.67
2019-06-20T00:56:24.307Z,414.15
2019-06-20T00:57:24.739Z,413.33
2019-06-20T00:58:25.139Z,413.70
2019-06-20T00:59:25.544Z,413.24
2019-06-20T01:00:25.950Z,414.28
2019-06-20T01:01:26.366Z,414.00
2019-06-20T01:02:26.783Z,414.15
2019-06-20T01:03:27.230Z,414.46
2019-06-20T01:04:27.676Z,414.50
2019-06-20T01:05:28.104Z,414.56
2019-06-20T01:06:28.467Z,414.71
2019-06-20T01:07:28.885Z,415.05
2019-06-20T01:08:29.544Z,414.85
2019-06-20T01:09:29.728Z,414.69
2019-06-20T01:10:30.132Z,415.23
2019-06-20T01:11:30.566Z,415.21
2019-06-20T01:12:31.002Z,415.06
2019-06-20T01:13:33.750Z,415.35
2019-06-20T01:14:31.809Z,415.89
2019-06-20T01:15:32.260Z,414.52
2019-06-20T01:16:32.667Z,408.84
2019-06-20T01:17:33.066Z,408.73
2019-06-20T01:18:33.482Z,408.81
2019-06-20T01:19:33.913Z,409.31
2019-06-20T01:20:34.329Z,408.65
2019-06-20T01:21:34.900Z,409.43
2019-06-20T01:22:35.173Z,409.11
2019-06-20T01:23:35.595Z,409.35
2019-06-20T01:24:36.011Z,409.40
2019-06-20T01:25:36.431Z,409.32
2019-06-20T01:26:36.867Z,409.63
2019-06-20T01:27:37.286Z,409.77
2019-06-20T01:28:37.718Z,409.72
2019-06-20T01:29:38.160Z,409.90
2019-06-20T01:30:38.514Z,409.75
2019-06-20T01:31:38.958Z,409.34
2019-06-20T01:32:39.389Z,409.52
2019-06-20T01:33:39.793Z,410.00
2019-06-20T01:34:40.175Z,409.52
2019-06-20T01:35:40.599Z,409.78
2019-06-20T01:36:41.046Z,409.82
2019-06-20T01:37:41.532Z,409.48
2019-06-20T01:38:41.872Z,409.65
2019-06-20T01:39:42.273Z,409.61
2019-06-20T01:40:42.675Z,409.49
2019-06-20T01:41:43.120Z,409.13
2019-06-20T01:42:43.559Z,409.76
2019-06-20T01:43:50.424Z,409.38
2019-06-20T01:44:45.395Z,409.57
2019-06-20T01:45:44.832Z,409.37
2019-06-20T01:46:45.277Z,409.27
2019-06-20T01:47:45.659Z,409.01
2019-06-20T01:48:46.058Z,409.35
2019-06-20T01:49:46.477Z,409.20
2019-06-20T01:50:46.888Z,409.23
2019-06-20T01:51:47.331Z,408.78
2019-06-20T01:52:47.743Z,408.86
2019-06-20T01:53:48.178Z,409.53
2019-06-20T01:54:48.722Z,408.62
2019-06-20T01:55:49.035Z,408.85
2019-06-20T01:56:49.450Z,408.90
2019-06-20T01:57:49.883Z,409.19
2019-06-20T01:58:50.306Z,409.11
2019-06-20T01:59:50.739Z,408.85
2019-06-20T02:00:51.157Z,408.83
2019-06-20T02:01:51.589Z,408.75
2019-06-20T02:02:52.141Z,408.85
2019-06-20T02:03:52.480Z,408.87
2019-06-20T02:04:52.854Z,409.31
2019-06-20T02:05:53.262Z,408.85
2019-06-20T02:06:53.690Z,408.79
2019-06-20T02:07:54.099Z,409.14
2019-06-20T02:08:54.500Z,408.69
2019-06-20T02:09:54.950Z,408.75
2019-06-20T02:12:27.669Z,389.11
2019-06-20T02:13:11.010Z,408.51
2019-06-20T02:14:11.411Z,408.88
2019-06-20T02:15:11.842Z,408.91
2019-06-20T02:16:12.245Z,408.95
2019-06-20T02:17:12.652Z,408.84
2019-06-20T02:18:13.081Z,408.97
2019-06-20T02:19:13.514Z,408.74
2019-06-20T02:20:14.036Z,408.89
2019-06-20T02:21:14.329Z,408.89
2019-06-20T02:22:14.751Z,409.18
2019-06-20T02:23:15.188Z,409.11
2019-06-20T02:24:15.605Z,409.06
2019-06-20T02:25:16.042Z,409.00
2019-06-20T02:26:16.450Z,408.98
2019-06-20T02:27:16.856Z,408.90
2019-06-20T02:28:17.379Z,408.94
2019-06-20T02:29:17.694Z,409.38
2019-06-20T02:30:18.125Z,408.90
2019-06-20T02:31:18.594Z,409.29
2019-06-20T02:32:18.931Z,408.72
2019-06-20T02:33:19.397Z,409.33
2019-06-20T02:34:19.781Z,408.88
2019-06-20T02:35:20.208Z,409.18
2019-06-20T02:36:20.653Z,408.84
2019-06-20T02:37:21.069Z,409.10
2019-06-20T02:38:21.498Z,409.37
2019-06-20T02:39:21.884Z,408.71
2019-06-20T02:40:22.300Z,409.14
2019-06-20T02:41:22.716Z,409.00
2019-06-20T02:42:23.135Z,409.24
2019-06-20T02:43:23.586Z,408.83
2019-06-20T02:44:29.837Z,409.35
2019-06-20T02:45:25.541Z,409.50
2019-06-20T02:46:24.808Z,409.41
2019-06-20T02:47:25.225Z,408.78
2019-06-20T02:48:25.916Z,409.76
2019-06-20T02:49:26.060Z,409.28
2019-06-20T02:50:26.502Z,409.48
2019-06-20T02:51:26.878Z,409.47
2019-06-20T02:52:27.321Z,409.33
2019-06-20T02:53:27.902Z,409.43
2019-06-20T02:54:28.162Z,409.35
2019-06-20T02:55:28.599Z,409.49
2019-06-20T02:56:28.982Z,409.31
2019-06-20T02:57:29.422Z,409.52
2019-06-20T02:58:29.885Z,409.41
2019-06-20T02:59:30.283Z,409.64
2019-06-20T03:00:30.707Z,409.59
2019-06-20T03:01:31.141Z,409.44
2019-06-20T03:02:31.496Z,410.04
2019-06-20T03:03:31.967Z,409.62
2019-06-20T03:04:32.355Z,409.72
2019-06-20T03:05:32.793Z,409.70
2019-06-20T03:06:33.190Z,409.63
2019-06-20T03:07:33.604Z,409.75
2019-06-20T03:08:34.046Z,409.64
2019-06-20T03:09:34.463Z,409.58
2019-06-20T03:10:34.914Z,409.55
2019-06-20T03:11:35.313Z,409.95
2019-06-20T03:12:35.735Z,409.66
2019-06-20T03:13:36.188Z,409.78
2019-06-20T03:14:44.941Z,409.61
2019-06-20T03:15:38.011Z,409.78
2019-06-20T03:16:37.423Z,409.84
2019-06-20T03:17:37.872Z,410.02
2019-06-20T03:18:38.397Z,410.05
2019-06-20T03:19:38.667Z,410.24
2019-06-20T03:20:39.114Z,409.71
2019-06-20T03:21:39.514Z,409.95
2019-06-20T03:22:39.935Z,410.00
2019-06-20T03:23:40.388Z,410.00
2019-06-20T03:24:40.770Z,410.12
2019-06-20T03:25:41.174Z,410.07
2019-06-20T03:26:41.718Z,409.87
2019-06-20T03:27:42.060Z,410.22
2019-06-20T03:28:42.519Z,410.12
2019-06-20T03:29:42.901Z,410.02
2019-06-20T03:30:43.314Z,410.21
2019-06-20T03:31:43.748Z,410.10
2019-06-20T03:32:44.166Z,410.33
2019-06-20T03:33:44.617Z,409.99
2019-06-20T03:34:45.069Z,410.17
2019-06-20T03:35:45.380Z,410.15
2019-06-20T03:36:45.842Z,410.05
2019-06-20T03:37:48.132Z,409.94
2019-06-20T03:38:46.711Z,410.44
2019-06-20T03:39:47.095Z,410.30
2019-06-20T03:40:47.540Z,410.15
2019-06-20T03:41:47.953Z,410.36
2019-06-20T03:42:48.384Z,416.60
2019-06-20T03:43:48.784Z,416.75
2019-06-20T03:45:01.277Z,416.26
2019-06-20T03:45:50.652Z,417.32
2019-06-20T03:46:50.036Z,416.80
2019-06-20T03:47:50.424Z,416.65
2019-06-20T03:48:50.935Z,416.44
2019-06-20T03:49:51.283Z,417.23
2019-06-20T03:50:51.724Z,416.34
2019-06-20T03:51:52.241Z,416.82
2019-06-20T03:52:52.523Z,417.05
2019-06-20T03:53:52.974Z,416.45
2019-06-20T03:54:53.374Z,416.61
2019-06-20T03:55:53.795Z,416.85
2019-06-20T03:56:54.231Z,417.17
2019-06-20T03:57:54.632Z,416.28
2019-06-20T03:58:55.100Z,416.39
2019-06-20T03:59:55.598Z,416.94
2019-06-20T04:00:55.879Z,416.87
2019-06-20T04:01:56.331Z,416.53
2019-06-20T04:02:56.718Z,417.45
2019-06-20T04:03:57.177Z,416.50
2019-06-20T04:04:57.544Z,416.93
2019-06-20T04:05:57.997Z,416.82
2019-06-20T04:06:58.420Z,416.55
2019-06-20T04:07:58.925Z,417.00
2019-06-20T04:08:59.264Z,417.39
2019-06-20T04:09:59.634Z,416.92
2019-06-20T04:11:00.083Z,416.66
2019-06-20T04:12:00.492Z,417.52
2019-06-20T04:13:00.908Z,417.05
2019-06-20T04:14:01.366Z,417.32
2019-06-20T04:15:14.965Z,417.12
2019-06-20T04:16:03.190Z,416.65
2019-06-20T04:17:02.587Z,417.12
2019-06-20T04:18:02.994Z,416.70
2019-06-20T04:19:03.453Z,416.98
2019-06-20T04:20:03.857Z,416.87
2019-06-20T04:21:04.257Z,417.20
2019-06-20T04:22:04.665Z,416.90
2019-06-20T04:23:05.086Z,416.69
2019-06-20T04:24:05.588Z,417.01
2019-06-20T04:25:05.964Z,416.58
2019-06-20T04:26:06.618Z,416.85
2019-06-20T04:27:06.817Z,416.92
2019-06-20T04:28:07.201Z,416.92
2019-06-20T04:29:07.654Z,416.55
2019-06-20T04:30:08.213Z,416.75
2019-06-20T04:31:08.493Z,416.88
2019-06-20T04:32:08.980Z,416.45
2019-06-20T04:33:09.415Z,416.55
2019-06-20T04:34:09.852Z,416.79
2019-06-20T04:35:10.202Z,416.72
2019-06-20T04:36:10.606Z,416.80
2019-06-20T04:37:11.037Z,416.84
2019-06-20T04:38:11.439Z,416.51
2019-06-20T04:39:18.677Z,416.78
2019-06-20T04:40:13.290Z,416.70
2019-06-20T04:41:12.857Z,416.70
2019-06-20T04:42:13.159Z,416.49
2019-06-20T04:43:13.553Z,416.43
2019-06-20T04:44:14.020Z,416.50
2019-06-20T04:45:14.439Z,416.98
2019-06-20T04:46:14.847Z,416.72
2019-06-20T04:47:15.284Z,416.56
2019-06-20T04:48:15.682Z,416.69
2019-06-20T04:49:19.506Z,410.26
2019-06-20T04:50:16.522Z,410.11
2019-06-20T04:51:16.934Z,416.75
2019-06-20T04:52:17.365Z,416.28
2019-06-20T04:53:17.787Z,416.55
2019-06-20T04:54:18.210Z,416.60
2019-06-20T04:55:18.607Z,416.36
2019-06-20T04:56:19.029Z,416.37
2019-06-20T04:57:19.532Z,416.25
2019-06-20T04:58:19.862Z,416.31
2019-06-20T04:59:20.305Z,416.18
2019-06-20T05:00:20.720Z,416.28
2019-06-20T05:01:21.110Z,416.32
2019-06-20T05:02:21.631Z,416.30
2019-06-20T05:03:21.969Z,416.60
2019-06-20T05:04:22.408Z,416.29
2019-06-20T05:05:22.887Z,416.17
2019-06-20T05:06:23.260Z,416.56
2019-06-20T05:07:23.657Z,416.47
2019-06-20T05:08:24.064Z,416.41
2019-06-20T05:09:24.500Z,416.80
2019-06-20T05:10:24.914Z,416.63
2019-06-20T05:11:25.322Z,416.45
2019-06-20T05:12:25.769Z,416.40
2019-06-20T05:13:26.172Z,416.33
2019-06-20T05:14:26.738Z,416.21
2019-06-20T05:15:27.025Z,416.20
2019-06-20T05:16:27.424Z,416.28
2019-06-20T05:17:27.846Z,416.72
2019-06-20T05:18:28.260Z,416.39
2019-06-20T05:19:28.717Z,415.92
2019-06-20T05:20:29.124Z,416.55
2019-06-20T05:21:29.516Z,416.54
2019-06-20T05:22:30.069Z,416.20
2019-06-20T05:23:30.345Z,416.09
2019-06-20T05:24:30.789Z,416.26
2019-06-20T05:25:31.215Z,416.31
2019-06-20T05:26:31.616Z,416.23
2019-06-20T05:27:32.049Z,416.03
2019-06-20T05:28:32.434Z,416.39
2019-06-20T05:29:32.890Z,416.05
2019-06-20T05:30:33.607Z,416.11
2019-06-20T05:31:33.681Z,416.15
2019-06-20T05:32:34.120Z,415.97
2019-06-20T05:33:34.501Z,416.01
2019-06-20T05:34:34.961Z,415.83
2019-06-20T05:35:35.480Z,415.78
2019-06-20T05:36:35.791Z,415.98
2019-06-20T05:37:36.232Z,416.35
2019-06-20T05:38:36.762Z,409.64
2019-06-20T05:39:37.101Z,415.73
2019-06-20T05:40:37.538Z,415.61
2019-06-20T05:41:37.957Z,415.75
2019-06-20T05:42:38.368Z,415.61
2019-06-20T05:43:38.788Z,415.71
2019-06-20T05:44:39.223Z,415.60
2019-06-20T05:45:39.666Z,415.57
2019-06-20T05:46:40.084Z,415.61
2019-06-20T05:47:40.490Z,415.39
2019-06-20T05:48:40.896Z,415.58
2019-06-20T05:49:41.465Z,415.97
2019-06-20T05:50:41.755Z,415.56
2019-06-20T05:51:42.139Z,415.51
2019-06-20T05:52:42.578Z,415.15
2019-06-20T05:53:43.010Z,415.32
2019-06-20T05:54:43.434Z,415.47
2019-06-20T05:55:43.945Z,415.24
2019-06-20T05:56:44.697Z,415.01
2019-06-20T05:57:44.678Z,415.51
2019-06-20T05:58:45.982Z,415.12
2019-06-20T05:59:45.536Z,415.29
2019-06-20T06:00:45.957Z,414.80
2019-06-20T06:01:46.977Z,414.90
2019-06-20T06:02:46.749Z,415.05
2019-06-20T06:03:47.311Z,414.92
2019-06-20T06:04:47.626Z,408.83
2019-06-20T06:05:48.050Z,414.85
2019-06-20T06:06:48.441Z,414.56
2019-06-20T06:07:48.856Z,414.79
2019-06-20T06:08:49.308Z,414.87
2019-06-20T06:09:49.728Z,414.48
2019-06-20T06:10:50.149Z,414.87
2019-06-20T06:11:50.632Z,414.92
2019-06-20T06:12:50.941Z,414.90
2019-06-20T06:13:51.385Z,414.79
2019-06-20T06:14:51.806Z,414.56
2019-06-20T06:15:52.220Z,414.38
2019-06-20T06:16:52.627Z,414.69
2019-06-20T06:17:53.060Z,414.64
2019-06-20T06:18:53.465Z,414.64
2019-06-20T06:19:53.981Z,414.84
2019-06-20T06:20:54.313Z,414.39
2019-06-20T06:21:54.722Z,414.46
2019-06-20T06:22:55.140Z,414.88
2019-06-20T06:23:55.575Z,414.54
2019-06-20T06:24:55.980Z,414.67
2019-06-20T06:25:56.409Z,414.42
2019-06-20T06:26:59.558Z,414.42
2019-06-20T06:27:57.259Z,414.30
2019-06-20T06:28:57.697Z,414.18
2019-06-20T06:29:58.072Z,414.23
2019-06-20T06:30:58.520Z,414.79
2019-06-20T06:31:58.902Z,414.47
2019-06-20T06:32:59.329Z,414.06
2019-06-20T06:33:59.758Z,414.88
2019-06-20T06:35:00.170Z,414.36
2019-06-20T06:36:00.599Z,414.30
2019-06-20T06:37:01.084Z,414.16
2019-06-20T06:38:01.419Z,413.67
2019-06-20T06:39:01.877Z,413.69
2019-06-20T06:40:02.276Z,413.57
2019-06-20T06:41:02.677Z,413.71
2019-06-20T06:42:03.106Z,414.08
2019-06-20T06:43:03.509Z,413.21
2019-06-20T06:44:03.939Z,413.61
2019-06-20T06:45:04.467Z,413.85
2019-06-20T06:46:04.748Z,413.60
2019-06-20T06:47:05.178Z,413.32
2019-06-20T06:48:05.596Z,413.53
2019-06-20T06:49:06.026Z,413.81
2019-06-20T06:50:06.508Z,414.31
2019-06-20T06:51:06.855Z,413.98
2019-06-20T06:52:07.320Z,414.93
2019-06-20T06:53:07.767Z,414.32
2019-06-20T06:54:08.123Z,414.67
2019-06-20T06:55:08.546Z,414.50
2019-06-20T06:56:08.946Z,415.34
2019-06-20T06:57:09.380Z,414.84
2019-06-20T06:58:09.783Z,414.61
2019-06-20T06:59:10.245Z,415.17
2019-06-20T07:00:10.675Z,415.12
2019-06-20T07:01:11.095Z,414.98
2019-06-20T07:02:11.471Z,415.21
2019-06-20T07:03:11.859Z,415.24
2019-06-20T07:04:12.316Z,416.00
2019-06-20T07:05:12.769Z,415.59
2019-06-20T07:06:13.156Z,415.45
2019-06-20T07:07:13.595Z,415.37
2019-06-20T07:08:14.006Z,415.82
2019-06-20T07:09:14.441Z,415.78
2019-06-20T07:10:14.904Z,415.96
2019-06-20T07:11:15.248Z,416.45
2019-06-20T07:12:15.749Z,415.59
2019-06-20T07:13:16.086Z,415.96
2019-06-20T07:14:16.536Z,415.70
2019-06-20T07:15:16.923Z,415.92
2019-06-20T07:16:17.341Z,415.98
2019-06-20T07:17:17.804Z,415.77
2019-06-20T07:18:18.284Z,416.61
2019-06-20T07:19:18.594Z,416.36
2019-06-20T07:20:19.017Z,416.13
2019-06-20T07:21:19.424Z,416.66
2019-06-20T07:22:19.860Z,416.39
2019-06-20T07:23:20.260Z,415.92
2019-06-20T07:24:20.711Z,416.33
2019-06-20T07:25:21.127Z,416.37
2019-06-20T07:26:21.615Z,416.58
2019-06-20T07:27:21.939Z,416.20
2019-06-20T07:28:22.342Z,416.29
2019-06-20T07:29:22.778Z,416.76
2019-06-20T07:30:23.193Z,416.28
2019-06-20T07:31:23.565Z,416.33
2019-06-20T07:32:24.041Z,416.15
2019-06-20T07:33:24.432Z,416.33
2019-06-20T07:34:24.899Z,416.87
2019-06-20T07:35:25.271Z,416.27
2019-06-20T07:36:25.668Z,416.73
2019-06-20T07:37:26.114Z,416.59
2019-06-20T07:38:26.530Z,417.00
2019-06-20T07:39:26.984Z,416.47
2019-06-20T07:40:27.381Z,416.42
2019-06-20T07:41:27.780Z,416.59
2019-06-20T07:42:28.479Z,416.74
2019-06-20T07:43:28.604Z,416.45
2019-06-20T07:44:29.060Z,416.21
2019-06-20T07:45:29.485Z,415.87
2019-06-20T07:46:29.946Z,416.93
2019-06-20T07:47:30.332Z,416.63
2019-06-20T07:48:30.715Z,416.47
2019-06-20T07:49:31.149Z,416.08
2019-06-20T07:50:31.611Z,416.11
2019-06-20T07:51:32.103Z,415.77
2019-06-20T07:52:32.412Z,416.34
2019-06-20T07:53:32.799Z,415.81
2019-06-20T07:54:33.238Z,415.67
2019-06-20T07:55:33.701Z,416.50
2019-06-20T07:56:34.100Z,416.23
2019-06-20T07:57:34.544Z,415.91
2019-06-20T07:58:34.941Z,416.04
2019-06-20T07:59:35.444Z,415.73
2019-06-20T08:00:35.819Z,415.96
2019-06-20T08:01:36.213Z,415.62
2019-06-20T08:02:36.652Z,415.36
2019-06-20T08:03:37.049Z,415.20
2019-06-20T08:04:37.457Z,415.62
2019-06-20T08:05:37.956Z,415.91
2019-06-20T08:06:38.314Z,415.89
2019-06-20T08:07:38.854Z,415.88
2019-06-20T08:08:39.142Z,415.98
2019-06-20T08:09:44.773Z,415.82
2019-06-20T08:10:41.014Z,416.35
2019-06-20T08:11:40.412Z,416.00
2019-06-20T08:12:40.837Z,415.89
2019-06-20T08:13:41.240Z,415.67
2019-06-20T08:14:41.704Z,416.42
2019-06-20T08:15:42.128Z,415.67
2019-06-20T08:16:42.479Z,416.01
2019-06-20T08:17:43.045Z,416.21
2019-06-20T08:18:43.354Z,415.95
2019-06-20T08:19:43.757Z,415.80
2019-06-20T08:20:44.201Z,409.54
2019-06-20T08:21:44.590Z,409.45
2019-06-20T08:22:45.008Z,409.54
2019-06-20T08:23:45.456Z,409.58
2019-06-20T08:24:45.866Z,409.44
2019-06-20T08:25:46.299Z,409.69
2019-06-20T08:26:46.682Z,409.12
2019-06-20T08:27:47.102Z,409.33
2019-06-20T08:28:47.510Z,409.75
2019-06-20T08:29:47.956Z,409.72
2019-06-20T08:30:48.412Z,409.37
2019-06-20T08:31:48.877Z,409.13
2019-06-20T08:32:49.329Z,410.02
2019-06-20T08:33:49.643Z,409.65
2019-06-20T08:34:50.054Z,409.81
2019-06-20T08:35:50.508Z,409.98
2019-06-20T08:36:50.901Z,409.75
2019-06-20T08:37:51.328Z,409.36
2019-06-20T08:38:51.702Z,409.67
2019-06-20T08:39:52.145Z,409.63
2019-06-20T08:40:52.686Z,409.78
2019-06-20T08:41:52.972Z,409.52
2019-06-20T08:42:53.418Z,409.86
2019-06-20T08:43:53.889Z,409.83
2019-06-20T08:44:56.215Z,409.87
2019-06-20T08:45:55.121Z,409.45
2019-06-20T08:46:56.380Z,409.66
2019-06-20T08:47:56.560Z,409.71
2019-06-20T08:48:56.312Z,409.70
2019-06-20T08:49:56.502Z,409.59
2019-06-20T08:50:58.225Z,409.72
2019-06-20T08:51:57.354Z,409.49
2019-06-20T08:52:57.997Z,409.08
2019-06-20T08:53:59.200Z,409.26
2019-06-20T08:54:59.548Z,409.02
2019-06-20T08:55:59.381Z,409.43
2019-06-20T08:56:59.324Z,408.99
2019-06-20T08:58:01.309Z,409.18
2019-06-20T08:59:00.593Z,409.00
2019-06-20T09:00:00.684Z,408.96
2019-06-20T09:08:10.159Z,408.82
2019-06-20T09:09:04.450Z,408.77
2019-06-20T09:10:04.741Z,408.59
2019-06-20T09:11:05.465Z,408.81
2019-06-20T09:12:05.576Z,409.05
2019-06-20T09:13:06.016Z,409.28
2019-06-20T09:14:06.510Z,408.74
2019-06-20T09:15:06.854Z,408.86
2019-06-20T09:16:07.305Z,408.92
2019-06-20T09:17:07.688Z,408.98
2019-06-20T09:18:08.100Z,408.60
2019-06-20T09:19:08.552Z,408.98
2019-06-20T09:20:08.969Z,408.58
2019-06-20T09:21:09.449Z,408.50
2019-06-20T09:22:09.942Z,408.59
2019-06-20T09:23:10.188Z,408.40
2019-06-20T09:24:10.695Z,408.78
2019-06-20T09:25:11.048Z,408.23
2019-06-20T09:26:11.498Z,408.29
2019-06-20T09:27:11.885Z,408.28
2019-06-20T09:28:12.303Z,408.32
2019-06-20T09:29:12.724Z,408.16
2019-06-20T09:30:13.291Z,408.13
2019-06-20T09:31:13.585Z,408.64
2019-06-20T09:32:13.983Z,408.07
2019-06-20T09:33:14.394Z,408.38
2019-06-20T09:34:14.819Z,408.54
2019-06-20T09:35:15.222Z,408.22
2019-06-20T09:36:15.722Z,408.19
2019-06-20T09:37:16.085Z,408.34
2019-06-20T09:38:16.540Z,408.52
2019-06-20T09:39:16.922Z,408.48
2019-06-20T09:40:17.310Z,408.37
2019-06-20T09:41:17.797Z,408.78
2019-06-20T09:42:18.170Z,410.99
2019-06-20T09:43:27.172Z,409.09
2019-06-20T09:44:20.025Z,408.94
2019-06-20T09:45:19.427Z,408.40
2019-06-20T09:46:19.959Z,408.63
2019-06-20T09:47:20.243Z,408.43
2019-06-20T09:48:20.670Z,408.32
2019-06-20T09:49:21.109Z,408.23
2019-06-20T09:50:21.517Z,408.32
2019-06-20T09:51:21.976Z,408.21
2019-06-20T09:52:22.345Z,408.41
2019-06-20T09:53:22.773Z,408.31
2019-06-20T09:54:23.281Z,408.61
2019-06-20T09:55:23.672Z,408.18
2019-06-20T09:56:24.064Z,408.25
2019-06-20T09:57:24.445Z,408.62
2019-06-20T09:58:24.873Z,408.67
2019-06-20T09:59:27.788Z,408.27
2019-06-20T10:00:25.733Z,407.87
2019-06-20T10:01:26.175Z,408.05
2019-06-20T10:02:26.547Z,408.80
2019-06-20T10:03:27.104Z,408.47
2019-06-20T10:04:27.423Z,408.31
2019-06-20T10:05:27.826Z,408.18
2019-06-20T10:06:28.282Z,408.24
2019-06-20T10:07:28.644Z,408.44
2019-06-20T10:08:29.083Z,408.30
2019-06-20T10:09:29.531Z,408.05
2019-06-20T10:10:29.938Z,407.73
2019-06-20T10:11:30.509Z,408.16
2019-06-20T10:12:30.758Z,408.02
2019-06-20T10:13:32.566Z,408.08
2019-06-20T10:14:31.628Z,407.72
2019-06-20T10:15:32.028Z,407.82
2019-06-20T10:16:45.020Z,407.75
2019-06-20T10:17:33.885Z,407.85
2019-06-20T10:18:33.288Z,407.73
2019-06-20T10:19:33.802Z,407.57
2019-06-20T10:20:34.141Z,408.31
2019-06-20T10:21:34.591Z,407.70
2019-06-20T10:22:35.008Z,407.75
2019-06-20T10:23:35.422Z,407.70
2019-06-20T10:24:35.841Z,407.69
2019-06-20T10:25:36.260Z,407.41
2019-06-20T10:26:37.628Z,407.56
2019-06-20T10:27:37.192Z,407.46
2019-06-20T10:28:37.513Z,407.49
2019-06-20T10:29:37.954Z,407.35
2019-06-20T10:30:38.349Z,407.39
2019-06-20T10:31:38.795Z,407.07
2019-06-20T10:32:39.214Z,406.88
2019-06-20T10:33:39.621Z,406.69
2019-06-20T10:34:40.060Z,406.20
2019-06-20T10:35:40.486Z,406.52
2019-06-20T10:36:40.976Z,406.51
2019-06-20T10:37:41.313Z,406.73
2019-06-20T10:38:41.715Z,406.30
2019-06-20T10:39:44.495Z,406.38
2019-06-20T10:40:44.733Z,405.67
2019-06-20T10:41:43.574Z,406.16
2019-06-20T10:42:44.556Z,405.98
2019-06-20T10:43:44.264Z,406.42
2019-06-20T10:44:45.703Z,405.86
2019-06-20T10:45:45.718Z,405.77
2019-06-20T10:46:45.863Z,405.74
2019-06-20T10:47:46.886Z,405.83
2019-06-20T10:48:45.999Z,405.93
2019-06-20T10:49:47.711Z,406.32
2019-06-20T10:50:47.721Z,406.10
2019-06-20T10:51:47.639Z,406.18
2019-06-20T10:52:48.043Z,406.40
2019-06-20T10:53:49.187Z,406.07
2019-06-20T10:54:49.286Z,406.12
2019-06-20T10:55:49.047Z,406.17
2019-06-20T10:56:49.326Z,406.11
2019-06-20T10:57:50.015Z,406.38
2019-06-20T10:58:50.690Z,406.11
2019-06-20T10:59:50.895Z,406.54
2019-06-20T11:00:51.301Z,406.48
2019-06-20T11:01:51.415Z,406.57
2019-06-20T11:02:51.839Z,406.31
2019-06-20T11:03:52.228Z,406.30
2019-06-20T11:04:52.679Z,406.77
2019-06-20T11:05:53.078Z,406.93
2019-06-20T11:06:53.542Z,406.88
2019-06-20T11:07:53.943Z,407.68
2019-06-20T11:08:54.378Z,407.23
2019-06-20T11:09:54.741Z,406.70
2019-06-20T11:10:55.163Z,406.68
2019-06-20T11:11:55.595Z,406.92
2019-06-20T11:12:56.435Z,406.82
2019-06-20T11:13:56.420Z,406.55
2019-06-20T11:14:56.857Z,406.49
2019-06-20T11:15:57.238Z,406.47
2019-06-20T11:16:57.753Z,406.57
2019-06-20T11:17:58.175Z,406.49
2019-06-20T11:18:58.523Z,412.55
2019-06-20T11:19:58.951Z,406.47
2019-06-20T11:20:59.338Z,406.39
2019-06-20T11:21:59.811Z,406.11
2019-06-20T11:23:00.239Z,406.21
2019-06-20T11:24:00.630Z,406.06
2019-06-20T11:25:01.059Z,406.19
2019-06-20T11:26:01.593Z,406.34
2019-06-20T11:27:01.928Z,406.60
2019-06-20T11:28:02.349Z,406.30
2019-06-20T11:29:02.775Z,406.66
2019-06-20T11:30:03.226Z,406.46
2019-06-20T11:31:03.603Z,406.55
2019-06-20T11:32:04.008Z,406.17
2019-06-20T11:33:04.436Z,406.46
2019-06-20T11:34:04.980Z,406.28
2019-06-20T11:35:05.285Z,406.36
2019-06-20T11:36:05.709Z,406.55
2019-06-20T11:37:06.153Z,408.15
2019-06-20T11:38:06.576Z,406.81
2019-06-20T11:39:06.975Z,406.49
2019-06-20T11:40:07.398Z,406.38
2019-06-20T11:41:07.875Z,406.68
2019-06-20T11:42:08.336Z,406.42
2019-06-20T11:43:08.660Z,406.65
2019-06-20T11:44:09.077Z,406.52
2019-06-20T11:45:09.512Z,406.48
2019-06-20T11:46:09.930Z,406.47
2019-06-20T11:47:10.351Z,407.39
2019-06-20T11:48:10.771Z,406.28
2019-06-20T11:49:11.155Z,406.74
2019-06-20T11:50:11.630Z,406.56
2019-06-20T11:51:12.009Z,406.00
2019-06-20T11:52:12.438Z,406.19
2019-06-20T11:53:12.857Z,406.23
2019-06-20T11:54:13.248Z,406.05
2019-06-20T11:55:13.658Z,405.93
2019-06-20T11:56:14.110Z,406.20
2019-06-20T11:57:14.537Z,406.02
2019-06-20T11:58:15.007Z,405.86
2019-06-20T11:59:15.401Z,405.75
2019-06-20T12:00:15.773Z,406.03
2019-06-20T12:01:16.214Z,405.26
2019-06-20T12:02:16.637Z,405.35
2019-06-20T12:03:17.079Z,405.80
2019-06-20T12:04:17.444Z,405.54
2019-06-20T12:05:17.877Z,405.70
2019-06-20T12:06:18.327Z,405.48
2019-06-20T12:07:18.852Z,405.59
2019-06-20T12:08:19.161Z,405.32
2019-06-20T12:09:19.556Z,405.66
2019-06-20T12:10:19.993Z,406.15
2019-06-20T12:11:20.396Z,406.00
2019-06-20T12:12:20.860Z,405.27
2019-06-20T12:13:21.257Z,405.66
2019-06-20T12:14:21.691Z,405.99
2019-06-20T12:15:22.212Z,405.61
2019-06-20T12:16:22.490Z,405.97
2019-06-20T12:17:22.928Z,405.65
2019-06-20T12:18:23.393Z,405.68
2019-06-20T12:19:23.747Z,405.69
2019-06-20T12:20:24.162Z,405.04
2019-06-20T12:21:24.604Z,405.82
2019-06-20T12:22:25.003Z,406.10
2019-06-20T12:23:25.542Z,405.74
2019-06-20T12:24:25.835Z,405.47
2019-06-20T12:25:26.255Z,405.75
2019-06-20T12:26:26.690Z,406.41
2019-06-20T12:27:27.093Z,405.83
2019-06-20T12:28:27.512Z,405.65
2019-06-20T12:29:28.012Z,405.87
2019-06-20T12:30:28.382Z,405.08
2019-06-20T12:31:28.855Z,404.87
2019-06-20T12:32:29.219Z,404.98
2019-06-20T12:33:29.614Z,405.22
2019-06-20T12:34:30.064Z,405.28
2019-06-20T12:35:30.498Z,404.72
2019-06-20T12:36:30.935Z,404.68
2019-06-20T12:37:31.358Z,404.75
2019-06-20T12:38:31.762Z,404.63
2019-06-20T12:39:32.476Z,404.74
2019-06-20T12:40:32.573Z,404.91
2019-06-20T12:41:33.042Z,404.51